createdAt,value
2019-05-25T00:01:35.697Z,683.87
2019-05-25T00:04:06.011Z,628.33
2019-05-25T00:06:36.731Z,542.67
2019-05-25T00:09:08.367Z,504.03
2019-05-25T00:11:38.695Z,579.33
2019-05-25T00:14:09.294Z,573.83
2019-05-25T00:16:39.656Z,623.40
2019-05-25T00:19:10.094Z,638.40
2019-05-25T00:21:40.440Z,715.20
2019-05-25T00:24:12.596Z,562.17
2019-05-25T00:26:43.006Z,556.23
2019-05-25T00:29:13.613Z,574.40
2019-05-25T00:31:44.062Z,702.57
2019-05-25T00:34:14.823Z,618.83
2019-05-25T00:36:45.492Z,600.57
2019-05-25T00:39:15.867Z,609.97
2019-05-25T00:41:46.544Z,515.90
2019-05-25T00:44:17.265Z,584.33
2019-05-25T00:46:47.673Z,639.10
2019-05-25T00:49:18.065Z,563.90
2019-05-25T00:51:48.421Z,543.73
2019-05-25T00:54:27.603Z,593.87
2019-05-25T00:56:51.462Z,561.77
2019-05-25T00:59:22.114Z,595.70
2019-05-25T01:01:52.827Z,609.57
2019-05-25T01:04:23.523Z,606.47
2019-05-25T01:06:54.125Z,592.43
2019-05-25T01:09:24.575Z,549.87
2019-05-25T01:11:55.535Z,569.07
2019-05-25T01:14:25.831Z,614.67
2019-05-25T01:16:56.178Z,582.63
2019-05-25T01:19:26.667Z,635.17
2019-05-25T01:21:57.387Z,607.33
2019-05-25T01:24:42.910Z,608.67
2019-05-25T01:26:59.814Z,580.33
2019-05-25T01:29:30.368Z,566.00
2019-05-25T01:32:01.033Z,643.83
2019-05-25T01:34:31.325Z,636.33
2019-05-25T01:37:01.662Z,579.13
2019-05-25T01:39:32.391Z,607.20
2019-05-25T01:42:02.728Z,619.83
2019-05-25T01:44:33.021Z,635.03
2019-05-25T01:47:03.802Z,589.83
2019-05-25T01:49:34.384Z,609.20
2019-05-25T01:52:04.808Z,650.10
2019-05-25T01:54:35.097Z,614.40
2019-05-25T01:57:05.566Z,589.47
2019-05-25T01:59:36.217Z,606.70
2019-05-25T02:02:07.771Z,560.30
2019-05-25T02:04:38.078Z,563.93
2019-05-25T02:07:08.874Z,564.73
2019-05-25T02:09:39.439Z,593.73
2019-05-25T02:12:09.785Z,552.83
2019-05-25T02:14:40.427Z,604.70
2019-05-25T02:17:11.185Z,589.90
2019-05-25T02:19:41.485Z,580.20
2019-05-25T02:22:11.949Z,597.87
2019-05-25T02:24:42.334Z,522.00
2019-05-25T02:27:12.645Z,540.03
2019-05-25T02:29:43.118Z,531.57
2019-05-25T02:32:13.826Z,536.13
2019-05-25T02:34:44.158Z,542.03
2019-05-25T02:37:14.469Z,557.07
2019-05-25T02:39:45.137Z,514.57
2019-05-25T02:42:15.505Z,486.27
2019-05-25T02:44:45.845Z,512.10
2019-05-25T02:47:16.396Z,526.40
2019-05-25T02:49:46.772Z,446.17
2019-05-25T02:52:17.065Z,474.63
2019-05-25T02:54:47.503Z,439.27
2019-05-25T02:57:17.858Z,465.20
2019-05-25T02:59:48.607Z,457.83
2019-05-25T03:02:18.911Z,475.50
2019-05-25T03:04:49.334Z,458.20
2019-05-25T03:07:21.277Z,526.17
2019-05-25T03:09:54.144Z,486.20
2019-05-25T03:12:25.010Z,400.47
2019-05-25T03:14:55.494Z,455.67
2019-05-25T03:17:26.147Z,417.73
2019-05-25T03:19:56.585Z,385.27
2019-05-25T03:22:27.214Z,415.87
2019-05-25T03:24:57.853Z,423.97
2019-05-25T03:27:28.449Z,406.20
2019-05-25T03:29:58.980Z,391.70
2019-05-25T03:32:29.283Z,398.00
2019-05-25T03:35:00.017Z,400.50
2019-05-25T03:37:30.654Z,325.07
2019-05-25T03:40:01.137Z,511.80
2019-05-25T03:42:31.520Z,497.10
2019-05-25T03:45:02.342Z,476.33
2019-05-25T03:47:32.627Z,459.97
2019-05-25T03:50:03.094Z,406.37
2019-05-25T03:52:33.792Z,432.67
2019-05-25T03:55:04.145Z,415.63
2019-05-25T03:57:34.470Z,420.20
2019-05-25T04:00:06.817Z,457.57
2019-05-25T04:02:37.561Z,368.80
2019-05-25T04:05:08.425Z,458.33
2019-05-25T04:07:38.797Z,444.47
2019-05-25T04:10:09.598Z,358.50
2019-05-25T04:12:40.280Z,405.93
2019-05-25T04:15:10.712Z,382.37
2019-05-25T04:17:41.027Z,477.13
2019-05-25T04:20:11.998Z,398.67
2019-05-25T04:22:42.314Z,439.53
2019-05-25T04:25:12.767Z,469.33
2019-05-25T04:27:43.374Z,430.43
2019-05-25T04:30:14.092Z,382.60
2019-05-25T04:32:44.824Z,297.73
2019-05-25T04:35:17.627Z,283.87
2019-05-25T04:37:48.077Z,343.40
2019-05-25T04:40:19.030Z,439.57
2019-05-25T04:42:49.311Z,299.00
2019-05-25T04:45:19.655Z,431.63
2019-05-25T04:47:50.520Z,428.00
2019-05-25T04:50:21.592Z,563.03
2019-05-25T04:52:51.996Z,287.00
2019-05-25T04:55:22.837Z,406.77
2019-05-25T04:57:54.340Z,403.87
2019-05-25T05:00:24.714Z,402.30
2019-05-25T05:02:55.720Z,500.63
2019-05-25T05:05:26.154Z,381.67
2019-05-25T05:07:56.993Z,360.33
2019-05-25T05:10:29.613Z,426.30
2019-05-25T05:13:00.897Z,337.37
2019-05-25T05:15:31.624Z,338.90
2019-05-25T05:21:25.655Z,286.00
2019-05-25T05:23:56.052Z,291.30
2019-05-25T05:26:26.702Z,446.77
2019-05-25T05:28:57.007Z,432.00
2019-05-25T05:31:27.433Z,467.87
2019-05-25T05:33:58.229Z,330.70
2019-05-25T05:36:30.093Z,242.43
2019-05-25T05:39:01.134Z,355.33
2019-05-25T05:41:32.958Z,385.63
2019-05-25T05:44:05.115Z,310.23
2019-05-25T05:46:37.764Z,384.30
2019-05-25T05:52:18.221Z,327.67
2019-05-25T05:54:50.598Z,252.87
2019-05-25T05:57:20.925Z,308.47
2019-05-25T05:59:51.238Z,396.60
2019-05-25T06:02:21.810Z,249.63
2019-05-25T06:04:53.067Z,319.30
2019-05-25T06:07:23.430Z,411.73
2019-05-25T06:09:54.178Z,466.53
2019-05-25T06:12:24.769Z,520.23
2019-05-25T06:14:55.491Z,651.00
2019-05-25T06:17:27.012Z,510.93
2019-05-25T06:19:57.327Z,442.37
2019-05-25T06:22:27.860Z,439.97
2019-05-25T06:24:59.152Z,444.13
2019-05-25T06:27:29.645Z,456.67
2019-05-25T06:30:00.029Z,455.63
2019-05-25T06:32:30.588Z,507.67
2019-05-25T06:35:00.904Z,540.77
2019-05-25T06:37:31.663Z,478.67
2019-05-25T06:40:02.385Z,408.43
2019-05-25T06:42:32.768Z,530.43
2019-05-25T06:45:03.345Z,387.63
2019-05-25T06:47:34.210Z,325.90
2019-05-25T06:50:04.945Z,319.50
2019-05-25T06:52:35.336Z,502.73
2019-05-25T06:55:06.622Z,371.23
2019-05-25T06:57:43.069Z,309.77
2019-05-25T07:00:09.807Z,627.97
2019-05-25T07:02:40.671Z,694.17
2019-05-25T07:05:11.870Z,199.80
2019-05-25T07:07:42.314Z,448.57
2019-05-25T07:10:14.276Z,861.37
2019-05-25T07:12:44.917Z,525.20
2019-05-25T07:15:16.848Z,820.67
2019-05-25T07:17:47.216Z,301.77
2019-05-25T07:20:18.113Z,428.93
2019-05-25T07:22:48.906Z,293.13
2019-05-25T07:25:20.774Z,417.27
2019-05-25T07:27:59.508Z,282.37
2019-05-25T07:30:24.759Z,198.73
2019-05-25T07:32:55.792Z,325.77
2019-05-25T07:35:26.110Z,370.47
2019-05-25T07:37:56.823Z,332.63
2019-05-25T07:40:27.386Z,258.20
2019-05-25T07:42:57.712Z,309.90
2019-05-25T07:45:28.100Z,444.07
2019-05-25T07:47:58.602Z,360.53
2019-05-25T07:50:29.290Z,295.57
2019-05-25T07:52:59.912Z,494.27
2019-05-25T07:55:30.206Z,281.50
2019-05-25T07:58:15.661Z,189.60
2019-05-25T08:00:33.307Z,234.00
2019-05-25T08:03:03.704Z,272.10
2019-05-25T08:05:34.493Z,166.73
2019-05-25T08:08:05.607Z,138.47
2019-05-25T08:10:35.901Z,132.93
2019-05-25T08:13:06.616Z,204.53
2019-05-25T08:15:37.108Z,193.40
2019-05-25T08:18:07.429Z,113.07
2019-05-25T08:20:37.806Z,139.23
2019-05-25T08:23:08.248Z,460.37
2019-05-25T08:25:39.024Z,134.17
2019-05-25T08:28:09.763Z,371.63
2019-05-25T08:30:40.064Z,297.93
2019-05-25T08:33:10.625Z,334.13
2019-05-25T08:35:41.219Z,408.23
2019-05-25T08:38:11.535Z,321.57
2019-05-25T08:40:41.854Z,289.50
2019-05-25T08:43:12.491Z,380.67
2019-05-25T08:45:42.820Z,249.03
2019-05-25T08:48:13.326Z,183.07
2019-05-25T08:50:43.699Z,482.07
2019-05-25T08:53:14.175Z,188.17
2019-05-25T08:55:44.831Z,298.23
2019-05-25T08:58:15.162Z,300.70
2019-05-25T09:00:45.505Z,209.47
2019-05-25T09:03:16.159Z,347.83
2019-05-25T09:05:46.453Z,231.87
2019-05-25T09:08:16.790Z,152.17
2019-05-25T09:10:47.581Z,174.27
2019-05-25T09:13:18.227Z,185.07
2019-05-25T09:15:48.611Z,97.37
2019-05-25T09:18:19.132Z,128.97
2019-05-25T09:20:49.803Z,145.30
2019-05-25T09:23:20.306Z,159.13
2019-05-25T09:25:50.590Z,136.27
2019-05-25T09:28:21.025Z,193.57
2019-05-25T09:30:51.724Z,139.60
2019-05-25T09:33:22.205Z,120.60
2019-05-25T09:35:52.568Z,109.23
2019-05-25T09:38:23.419Z,72.43
2019-05-25T09:40:54.009Z,134.40
2019-05-25T09:43:24.537Z,91.00
2019-05-25T09:45:55.069Z,285.60
2019-05-25T09:48:25.489Z,772.73
2019-05-25T09:50:55.826Z,849.43
2019-05-25T09:53:26.412Z,874.27
2019-05-25T09:55:56.736Z,821.77
2019-05-25T09:58:27.357Z,762.50
2019-05-25T10:00:58.152Z,597.40
2019-05-25T10:03:28.487Z,157.50
2019-05-25T10:05:59.007Z,618.23
2019-05-25T10:08:29.673Z,598.13
2019-05-25T10:10:59.977Z,555.53
2019-05-25T10:13:30.416Z,671.67
2019-05-25T10:16:00.805Z,817.57
2019-05-25T10:18:31.138Z,943.77
2019-05-25T10:21:01.436Z,456.83
2019-05-25T10:23:32.035Z,518.60
2019-05-25T10:26:02.329Z,683.40
2019-05-25T10:28:33.008Z,642.07
2019-05-25T10:31:04.382Z,399.43
2019-05-25T10:33:34.882Z,250.13
2019-05-25T10:36:05.676Z,215.37
2019-05-25T10:38:36.180Z,209.37
2019-05-25T10:41:06.497Z,148.60
2019-05-25T10:43:37.197Z,335.10
2019-05-25T10:46:07.517Z,411.07
2019-05-25T10:48:37.837Z,119.77
2019-05-25T10:51:08.545Z,141.30
2019-05-25T10:53:39.056Z,372.07
2019-05-25T10:56:09.356Z,352.47
2019-05-25T10:58:39.977Z,482.33
2019-05-25T11:01:10.659Z,238.07
2019-05-25T11:03:40.984Z,236.33
2019-05-25T11:06:11.635Z,190.93
2019-05-25T11:08:42.144Z,263.50
2019-05-25T11:11:12.474Z,159.30
2019-05-25T11:13:43.112Z,116.13
2019-05-25T11:16:13.806Z,83.47
2019-05-25T11:18:45.393Z,96.97
2019-05-25T11:21:15.793Z,275.93
2019-05-25T11:23:46.555Z,146.53
2019-05-25T11:26:16.866Z,436.37
2019-05-25T11:28:47.179Z,456.57
2019-05-25T11:31:17.644Z,886.90
2019-05-25T11:33:48.225Z,441.57
2019-05-25T11:36:18.983Z,372.97
2019-05-25T11:38:49.299Z,379.20
2019-05-25T11:41:19.618Z,445.60
2019-05-25T11:43:50.245Z,187.00
2019-05-25T11:46:20.494Z,298.30
2019-05-25T11:48:50.808Z,291.20
2019-05-25T11:51:21.529Z,337.93
2019-05-25T11:53:52.055Z,98.90
2019-05-25T11:56:22.468Z,56.73
2019-05-25T11:58:53.185Z,56.47
2019-05-25T12:01:23.820Z,48.17
2019-05-25T12:03:54.321Z,43.10
2019-05-25T12:06:26.015Z,95.23
2019-05-25T12:08:56.431Z,31.80
2019-05-25T12:11:27.177Z,20.23
2019-05-25T12:13:57.543Z,26.17
2019-05-25T12:16:27.828Z,25.33
2019-05-25T12:18:58.373Z,26.73
2019-05-25T12:21:28.931Z,19.83
2019-05-25T12:23:59.223Z,19.77
2019-05-25T12:26:29.990Z,75.33
2019-05-25T12:29:00.889Z,234.30
2019-05-25T12:31:31.269Z,69.13
2019-05-25T12:34:01.702Z,149.50
2019-05-25T12:36:32.050Z,265.00
2019-05-25T12:39:02.942Z,493.13
2019-05-25T12:41:33.376Z,288.70
2019-05-25T12:44:03.738Z,317.97
2019-05-25T12:46:35.126Z,119.47
2019-05-25T12:49:05.918Z,147.37
2019-05-25T12:51:36.366Z,171.80
2019-05-25T12:54:06.819Z,112.80
2019-05-25T12:56:37.387Z,49.83
2019-05-25T12:59:07.725Z,100.40
2019-05-25T13:01:38.144Z,83.93
2019-05-25T13:04:08.861Z,51.60
2019-05-25T13:06:39.223Z,198.27
2019-05-25T13:09:10.156Z,91.73
2019-05-25T13:11:40.585Z,139.13
2019-05-25T13:14:14.727Z,161.97
2019-05-25T13:16:43.136Z,179.67
2019-05-25T13:19:13.435Z,178.67
2019-05-25T13:21:43.867Z,218.17
2019-05-25T13:24:14.552Z,102.57
2019-05-25T13:26:44.895Z,341.57
2019-05-25T13:29:15.246Z,147.87
2019-05-25T13:31:45.897Z,223.37
2019-05-25T13:34:16.361Z,186.57
2019-05-25T13:36:46.703Z,523.73
2019-05-25T13:39:17.530Z,327.90
2019-05-25T13:41:47.916Z,315.23
2019-05-25T13:44:18.403Z,246.57
2019-05-25T13:46:48.700Z,167.40
2019-05-25T13:49:19.029Z,201.93
2019-05-25T13:51:49.761Z,93.17
2019-05-25T13:54:20.298Z,76.00
2019-05-25T13:56:50.631Z,139.40
2019-05-25T13:59:21.232Z,69.23
2019-05-25T14:01:51.856Z,94.13
2019-05-25T14:04:22.163Z,127.77
2019-05-25T14:06:52.844Z,315.63
2019-05-25T14:09:23.590Z,777.03
2019-05-25T14:11:53.924Z,556.63
2019-05-25T14:14:24.774Z,427.17
2019-05-25T14:16:55.187Z,313.83
2019-05-25T14:19:25.870Z,263.53
2019-05-25T14:21:56.515Z,356.43
2019-05-25T14:24:26.966Z,474.57
2019-05-25T14:26:57.763Z,450.20
2019-05-25T14:29:28.444Z,429.43
2019-05-25T14:31:58.764Z,562.30
2019-05-25T14:34:29.202Z,409.33
2019-05-25T14:36:59.871Z,415.87
2019-05-25T14:39:30.188Z,461.37
2019-05-25T14:42:00.585Z,454.80
2019-05-25T14:44:31.273Z,515.83
2019-05-25T14:47:01.939Z,469.60
2019-05-25T14:49:32.750Z,464.00
2019-05-25T14:52:03.040Z,397.20
2019-05-25T14:54:33.676Z,417.57
2019-05-25T14:57:04.630Z,548.87
2019-05-25T14:59:35.132Z,252.93
2019-05-25T15:02:05.648Z,309.43
2019-05-25T15:04:36.470Z,354.73
2019-05-25T15:07:06.963Z,544.70
2019-05-25T15:09:37.325Z,394.17
2019-05-25T15:12:07.944Z,361.87
2019-05-25T15:14:38.354Z,351.37
2019-05-25T15:17:08.661Z,284.93
2019-05-25T15:19:39.356Z,338.93
2019-05-25T15:22:10.558Z,279.50
2019-05-25T15:24:41.282Z,250.47
2019-05-25T15:27:11.851Z,665.27
2019-05-25T15:29:42.588Z,405.47
2019-05-25T15:32:20.175Z,353.80
2019-05-25T15:34:46.587Z,412.13
2019-05-25T15:37:17.411Z,452.17
2019-05-25T15:39:47.710Z,433.57
2019-05-25T15:42:18.070Z,437.30
2019-05-25T15:44:48.522Z,523.77
2019-05-25T15:47:18.873Z,451.90
2019-05-25T15:49:49.592Z,470.97
2019-05-25T15:52:19.883Z,445.87
2019-05-25T15:54:50.377Z,472.27
2019-05-25T15:57:20.964Z,464.67
2019-05-25T15:59:51.840Z,460.07
2019-05-25T16:02:35.667Z,423.60
2019-05-25T16:04:54.985Z,515.43
2019-05-25T16:07:25.400Z,441.57
2019-05-25T16:09:56.040Z,419.63
2019-05-25T16:12:28.355Z,425.67
2019-05-25T16:14:58.749Z,384.27
2019-05-25T16:17:29.070Z,387.93
2019-05-25T16:19:59.517Z,363.57
2019-05-25T16:22:30.102Z,408.97
2019-05-25T16:25:00.748Z,324.80
2019-05-25T16:27:31.088Z,384.17
2019-05-25T16:30:01.392Z,255.97
2019-05-25T16:32:32.068Z,357.13
2019-05-25T16:35:02.543Z,237.20
2019-05-25T16:37:33.079Z,294.80
2019-05-25T16:40:03.871Z,339.23
2019-05-25T16:42:34.344Z,370.73
2019-05-25T16:45:06.093Z,377.33
2019-05-25T16:47:38.323Z,391.97
2019-05-25T16:50:13.868Z,389.53
2019-05-25T16:52:43.147Z,386.77
2019-05-25T16:55:13.928Z,371.70
2019-05-25T16:57:44.296Z,387.33
2019-05-25T17:00:18.697Z,394.70
2019-05-25T17:02:49.383Z,395.03
2019-05-25T17:05:20.311Z,375.83
2019-05-25T17:07:51.041Z,389.63
2019-05-25T17:10:21.424Z,423.87
2019-05-25T17:12:51.749Z,448.90
2019-05-25T17:15:22.358Z,461.93
2019-05-25T17:17:53.046Z,415.90
2019-05-25T17:20:23.386Z,430.37
2019-05-25T17:22:53.786Z,434.47
2019-05-25T17:25:24.363Z,446.53
2019-05-25T17:27:55.196Z,427.80
2019-05-25T17:30:41.311Z,426.87
2019-05-25T17:33:12.097Z,388.27
2019-05-25T17:35:42.784Z,382.13
2019-05-25T17:38:13.539Z,356.00
2019-05-25T17:40:43.878Z,328.20
2019-05-25T17:43:15.268Z,266.40
2019-05-25T17:45:46.164Z,252.80
2019-05-25T17:48:16.599Z,258.70
2019-05-25T17:50:46.925Z,249.63
2019-05-25T17:53:17.681Z,217.03
2019-05-25T17:55:48.182Z,225.63
2019-05-25T17:58:18.878Z,256.70
2019-05-25T18:00:50.611Z,242.00
2019-05-25T18:03:21.129Z,168.07
2019-05-25T18:05:51.945Z,170.10
2019-05-25T18:08:22.280Z,144.83
2019-05-25T18:10:54.550Z,164.87
2019-05-25T18:13:28.536Z,161.70
2019-05-25T18:15:56.915Z,125.10
2019-05-25T18:18:27.285Z,129.03
2019-05-25T18:20:57.815Z,155.00
2019-05-25T18:23:28.692Z,210.00
2019-05-25T18:25:58.990Z,155.33
2019-05-25T18:28:29.664Z,123.20
2019-05-25T18:30:59.983Z,121.80
2019-05-25T18:33:31.408Z,134.97
2019-05-25T18:36:01.731Z,154.70
2019-05-25T18:38:32.327Z,204.23
2019-05-25T18:41:03.160Z,249.43
2019-05-25T18:43:33.499Z,237.63
2019-05-25T18:46:04.673Z,260.80
2019-05-25T18:48:35.465Z,273.73
2019-05-25T18:51:06.262Z,280.80
2019-05-25T18:53:36.641Z,296.63
2019-05-25T18:56:07.394Z,266.17
2019-05-25T18:58:38.067Z,249.90
2019-05-25T19:01:08.516Z,225.03
2019-05-25T19:03:39.088Z,178.53
2019-05-25T19:06:09.480Z,194.80
2019-05-25T19:08:40.176Z,190.30
2019-05-25T19:11:10.571Z,213.53
2019-05-25T19:13:40.901Z,226.47
2019-05-25T19:16:11.615Z,235.23
2019-05-25T19:18:42.315Z,224.47
2019-05-25T19:21:12.632Z,194.83
2019-05-25T19:23:43.182Z,202.53
2019-05-25T19:26:13.706Z,216.03
2019-05-25T19:28:44.026Z,210.83
2019-05-25T19:31:14.598Z,216.87
2019-05-25T19:33:45.280Z,218.63
2019-05-25T19:36:15.624Z,211.23
2019-05-25T19:38:45.938Z,228.30
2019-05-25T19:41:16.755Z,233.40
2019-05-25T19:43:47.304Z,222.23
2019-05-25T19:46:17.676Z,281.17
2019-05-25T19:48:48.228Z,175.27
2019-05-25T19:51:18.939Z,215.63
2019-05-25T19:53:49.274Z,157.00
2019-05-25T19:56:19.814Z,178.53
2019-05-25T19:58:51.547Z,132.67
2019-05-25T20:01:21.873Z,139.33
2019-05-25T20:03:52.406Z,142.57
2019-05-25T20:06:22.790Z,175.57
2019-05-25T20:08:53.543Z,148.30
2019-05-25T20:11:24.225Z,104.60
2019-05-25T20:13:54.569Z,130.00
2019-05-25T20:16:25.355Z,161.07
2019-05-25T20:18:56.045Z,158.87
2019-05-25T20:21:26.371Z,158.13
2019-05-25T20:23:56.907Z,179.07
2019-05-25T20:26:27.757Z,181.37
2019-05-25T20:28:58.103Z,197.03
2019-05-25T20:31:28.547Z,201.97
2019-05-25T20:33:59.357Z,235.90
2019-05-25T20:36:29.661Z,226.53
2019-05-25T20:39:01.071Z,221.93
2019-05-25T20:41:31.693Z,221.53
2019-05-25T20:44:02.207Z,229.80
2019-05-25T20:46:33.078Z,239.43
2019-05-25T20:49:03.462Z,198.30
2019-05-25T20:51:33.938Z,278.47
2019-05-25T20:54:04.732Z,203.57
2019-05-25T20:56:35.210Z,254.20
2019-05-25T20:59:05.512Z,297.43
2019-05-25T21:01:36.200Z,259.77
2019-05-25T21:04:06.709Z,290.60
2019-05-25T21:06:37.078Z,286.40
2019-05-25T21:09:08.405Z,237.40
2019-05-25T21:11:38.766Z,365.37
2019-05-25T21:14:09.574Z,372.37
2019-05-25T21:16:39.918Z,478.87
2019-05-25T21:19:10.268Z,568.70
2019-05-25T21:21:41.003Z,571.33
2019-05-25T21:24:11.531Z,578.67
2019-05-25T21:26:41.884Z,557.27
2019-05-25T21:29:12.452Z,541.53
2019-05-25T21:31:43.220Z,535.03
2019-05-25T21:34:13.532Z,514.17
2019-05-25T21:36:45.400Z,545.07
2019-05-25T21:39:16.821Z,538.00
2019-05-25T21:41:47.268Z,544.27
2019-05-25T21:44:17.793Z,484.80
2019-05-25T21:46:48.136Z,410.93
2019-05-25T21:49:18.856Z,388.20
2019-05-25T21:51:49.551Z,351.27
2019-05-25T21:54:19.912Z,405.47
2019-05-25T21:56:50.756Z,388.07
2019-05-25T21:59:21.439Z,375.07
2019-05-25T22:01:51.767Z,385.83
2019-05-25T22:04:22.499Z,362.83
2019-05-25T22:06:52.959Z,396.00
2019-05-25T22:09:24.320Z,378.47
2019-05-25T22:11:55.092Z,415.50
2019-05-25T22:14:25.724Z,388.00
2019-05-25T22:16:56.426Z,422.90
2019-05-25T22:19:27.166Z,368.60
2019-05-25T22:21:57.865Z,425.23
2019-05-25T22:24:28.600Z,436.37
2019-05-25T22:26:59.507Z,471.93
2019-05-25T22:29:30.029Z,454.77
2019-05-25T22:32:00.766Z,451.43
2019-05-25T22:34:31.606Z,482.13
2019-05-25T22:37:02.037Z,496.27
2019-05-25T22:39:32.429Z,499.27
2019-05-25T22:42:03.195Z,544.33
2019-05-25T22:44:33.827Z,466.37
2019-05-25T22:47:04.554Z,437.40
2019-05-25T22:49:35.196Z,565.30
2019-05-25T22:52:05.920Z,526.60
2019-05-25T22:54:36.729Z,624.30
2019-05-25T22:57:07.588Z,564.23
2019-05-25T22:59:38.272Z,655.87
2019-05-25T23:02:09.065Z,480.30
2019-05-25T23:04:39.421Z,576.00
2019-05-25T23:07:10.717Z,498.47
2019-05-25T23:09:41.119Z,516.70
2019-05-25T23:12:11.633Z,525.83
2019-05-25T23:14:41.978Z,416.73
2019-05-25T23:17:12.832Z,776.67
2019-05-25T23:19:43.206Z,548.27
2019-05-25T23:22:13.869Z,512.37
2019-05-25T23:24:44.417Z,512.80
2019-05-25T23:27:16.137Z,498.03
2019-05-25T23:29:46.887Z,482.93
2019-05-25T23:32:17.613Z,497.93
2019-05-25T23:34:47.907Z,564.17
2019-05-25T23:37:18.420Z,575.07
2019-05-25T23:39:48.827Z,571.87
2019-05-25T23:42:19.253Z,585.50
2019-05-25T23:44:49.810Z,570.50
2019-05-25T23:47:20.389Z,497.00
2019-05-25T23:49:50.703Z,390.30
2019-05-25T23:52:21.210Z,311.90
2019-05-25T23:54:51.855Z,320.23
2019-05-25T23:57:22.163Z,195.50
2019-05-25T23:59:52.622Z,159.70
